Time;durP1;ratioP1;P1;durP2;ratioP2;P2;SDS_P1;SDS_P2;PMS_P1;PMS_P2;Temp;Humidity;BMP_temperature;BMP_pressure;BME280_temperature;BME280_humidity;BME280_pressure;Samples;Min_cycle;Max_cycle;Signal;HPM_P1;HPM_P2
2021/12/29 00:01:51;;;;;;;38.42;10.00;;;5.30;99.90;;;;;;5014939;28;20044;-84
2021/12/29 00:04:17;;;;;;;73.53;14.80;;;5.30;99.90;;;;;;5032074;28;20041;-80
2021/12/29 00:06:43;;;;;;;102.75;15.00;;;5.30;99.90;;;;;;5032145;28;20128;-80
2021/12/29 00:09:09;;;;;;;57.55;13.02;;;5.40;99.90;;;;;;5032291;28;20492;-80
2021/12/29 00:11:38;;;;;;;81.25;15.15;;;5.50;99.90;;;;;;5031935;28;20133;-82
2021/12/29 00:14:05;;;;;;;67.47;12.75;;;5.40;99.90;;;;;;5016285;28;20377;-83
2021/12/29 00:16:35;;;;;;;87.15;15.65;;;5.40;99.90;;;;;;5048448;28;20044;-83
2021/12/29 00:19:07;;;;;;;129.70;19.77;;;5.40;99.90;;;;;;5031834;28;20077;-80
2021/12/29 00:21:34;;;;;;;127.35;17.95;;;5.40;99.90;;;;;;5031844;28;20046;-80
2021/12/29 00:24:02;;;;;;;121.40;17.73;;;5.40;99.90;;;;;;5015240;28;20080;-84
2021/12/29 00:26:31;;;;;;;74.38;14.85;;;5.40;99.90;;;;;;5031702;28;20049;-79
2021/12/29 00:29:00;;;;;;;139.63;19.33;;;5.50;99.90;;;;;;5031565;28;20069;-82
2021/12/29 00:31:31;;;;;;;156.30;21.70;;;5.50;99.90;;;;;;5031925;28;20041;-83
2021/12/29 00:33:58;;;;;;;156.77;20.17;;;5.70;99.90;;;;;;5031607;28;20041;-83
2021/12/29 00:36:24;;;;;;;199.82;23.75;;;5.60;99.90;;;;;;5048519;28;20408;-79
2021/12/29 00:38:49;;;;;;;213.00;25.80;;;5.60;99.90;;;;;;5031444;28;20049;-83
2021/12/29 00:41:15;;;;;;;145.68;22.70;;;5.70;99.90;;;;;;5048164;28;20053;-82
2021/12/29 00:43:42;;;;;;;155.93;22.92;;;5.70;99.90;;;;;;5015084;28;20083;-78
2021/12/29 00:46:10;;;;;;;192.43;28.48;;;5.80;99.90;;;;;;4998823;28;20140;-82
2021/12/29 00:48:38;;;;;;;158.93;26.15;;;5.80;99.90;;;;;;5014922;28;20042;-83
2021/12/29 00:51:05;;;;;;;190.55;27.33;;;5.90;99.90;;;;;;5015292;28;20435;-83
2021/12/29 00:53:32;;;;;;;189.18;27.50;;;5.90;99.90;;;;;;4998850;28;20396;-80
2021/12/29 00:55:58;;;;;;;122.97;22.27;;;5.90;99.90;;;;;;5031238;28;20060;-83
2021/12/29 00:58:24;;;;;;;125.63;25.25;;;5.90;99.90;;;;;;5047980;28;20049;-79
2021/12/29 01:00:49;;;;;;;108.05;21.98;;;6.00;99.90;;;;;;5014949;28;20037;-82
2021/12/29 01:03:15;;;;;;;109.05;24.23;;;6.00;99.90;;;;;;5031696;28;20549;-83
2021/12/29 01:05:41;;;;;;;135.85;25.80;;;6.00;99.90;;;;;;4998536;28;20041;-79
2021/12/29 01:08:07;;;;;;;157.18;28.45;;;6.00;99.90;;;;;;5014867;28;20037;-79
2021/12/29 01:10:34;;;;;;;148.07;28.55;;;6.00;99.90;;;;;;5047780;28;20091;-79
2021/12/29 01:13:02;;;;;;;168.80;29.23;;;5.90;99.90;;;;;;5033387;28;20084;-83
2021/12/29 01:15:33;;;;;;;152.18;27.55;;;6.00;99.90;;;;;;5035112;28;20092;-79
2021/12/29 01:18:05;;;;;;;203.68;31.25;;;6.00;99.90;;;;;;5051795;28;20053;-83
2021/12/29 01:20:31;;;;;;;233.30;29.33;;;6.00;99.90;;;;;;5035309;28;20544;-80
2021/12/29 01:22:59;;;;;;;215.18;25.38;;;6.00;99.90;;;;;;5035032;28;20141;-83
2021/12/29 01:25:26;;;;;;;364.08;35.88;;;5.90;99.90;;;;;;5051640;28;20056;-83
2021/12/29 01:27:52;;;;;;;346.83;32.45;;;5.90;99.90;;;;;;5051743;28;20551;-79
2021/12/29 01:30:18;;;;;;;482.20;40.75;;;5.80;99.90;;;;;;5034907;28;20137;-83
2021/12/29 01:32:44;;;;;;;559.40;40.05;;;5.70;99.90;;;;;;5034860;28;20092;-80
2021/12/29 01:35:13;;;;;;;519.55;38.08;;;5.70;99.90;;;;;;5018401;28;20402;-80
2021/12/29 01:37:40;;;;;;;606.03;42.15;;;5.70;99.90;;;;;;5034649;28;20045;-80
2021/12/29 01:40:11;;;;;;;658.47;42.50;;;5.60;99.90;;;;;;5018762;28;20499;-83
2021/12/29 01:42:37;;;;;;;619.03;39.13;;;5.60;99.90;;;;;;5051252;28;20046;-79
2021/12/29 01:45:05;;;;;;;527.92;38.97;;;5.60;99.90;;;;;;5018362;28;20048;-80
2021/12/29 01:47:32;;;;;;;659.58;46.22;;;5.60;99.90;;;;;;5034855;28;20407;-80
2021/12/29 01:50:00;;;;;;;437.25;35.83;;;5.60;99.90;;;;;;5051593;28;20504;-79
2021/12/29 01:52:30;;;;;;;233.20;24.40;;;5.60;99.90;;;;;;5018142;28;20053;-80
2021/12/29 01:54:56;;;;;;;91.90;20.83;;;5.70;99.90;;;;;;5050839;28;20056;-82
2021/12/29 01:57:22;;;;;;;63.38;17.23;;;5.80;99.90;;;;;;5018017;28;20045;-80
2021/12/29 01:59:48;;;;;;;26.58;11.50;;;6.00;99.90;;;;;;5002014;28;20443;-83
2021/12/29 02:02:14;;;;;;;33.88;13.85;;;6.00;99.90;;;;;;5034331;28;20042;-79
2021/12/29 02:04:46;;;;;;;132.00;23.65;;;6.10;99.90;;;;;;5034376;28;20056;-79
2021/12/29 02:07:12;;;;;;;95.10;19.40;;;6.10;99.90;;;;;;5034266;28;20045;-79
2021/12/29 02:09:38;;;;;;;30.25;9.75;;;6.10;99.90;;;;;;5001392;28;20408;-80
2021/12/29 02:12:05;;;;;;;90.30;17.20;;;6.10;99.90;;;;;;5034528;28;20037;-79
2021/12/29 02:14:32;;;;;;;42.67;10.63;;;6.10;99.90;;;;;;5034608;28;20038;-83
2021/12/29 02:16:59;;;;;;;43.67;11.07;;;6.10;99.90;;;;;;5017744;28;20446;-82
2021/12/29 02:19:26;;;;;;;54.65;11.68;;;6.10;99.90;;;;;;5017959;28;20396;-79
2021/12/29 02:22:08;;;;;;;61.40;11.40;;;6.20;99.90;;;;;;5017386;28;20045;-79
2021/12/29 02:24:38;;;;;;;51.63;11.25;;;6.10;99.90;;;;;;5050091;28;20539;-79
2021/12/29 02:27:06;;;;;;;71.22;13.10;;;6.20;99.90;;;;;;5017434;28;20060;-79
2021/12/29 02:29:33;;;;;;;74.53;13.10;;;6.20;99.90;;;;;;5001109;28;20087;-83
2021/12/29 02:32:00;;;;;;;96.13;14.18;;;6.20;99.90;;;;;;5033729;28;20088;-83
2021/12/29 02:34:26;;;;;;;133.40;17.20;;;6.30;99.90;;;;;;5017317;28;20080;-84
2021/12/29 02:36:52;;;;;;;145.93;17.20;;;6.20;99.90;;;;;;5050265;28;20460;-80
2021/12/29 02:39:20;;;;;;;69.45;13.15;;;6.10;99.90;;;;;;5017639;28;20052;-83
2021/12/29 02:41:51;;;;;;;42.80;9.57;;;6.10;99.90;;;;;;5017097;28;20088;-83
2021/12/29 02:44:25;;;;;;;88.70;14.88;;;6.20;99.90;;;;;;5033934;28;20570;-83
2021/12/29 02:46:52;;;;;;;27.38;6.25;;;6.30;99.90;;;;;;5033479;28;20037;-83
2021/12/29 02:49:18;;;;;;;61.22;11.70;;;6.40;99.90;;;;;;5033504;28;20046;-83
2021/12/29 02:51:44;;;;;;;53.45;11.05;;;6.30;99.90;;;;;;5033379;28;20523;-83
2021/12/29 02:54:11;;;;;;;42.70;10.60;;;6.30;99.90;;;;;;5017146;28;20076;-83
2021/12/29 02:56:36;;;;;;;59.97;13.80;;;6.30;99.90;;;;;;5017072;28;20420;-83
2021/12/29 02:59:03;;;;;;;76.20;15.27;;;6.30;99.90;;;;;;5016784;28;20050;-83
2021/12/29 03:01:29;;;;;;;30.25;8.60;;;6.50;99.90;;;;;;5049815;28;20076;-83
2021/12/29 03:03:57;;;;;;;68.03;15.65;;;6.30;99.90;;;;;;5016874;28;20507;-79
2021/12/29 03:06:23;;;;;;;89.47;18.27;;;6.30;99.90;;;;;;5033015;28;20049;-83
2021/12/29 03:08:49;;;;;;;81.32;20.08;;;6.40;99.90;;;;;;5033172;28;20400;-83
2021/12/29 03:11:15;;;;;;;107.35;21.27;;;6.40;99.90;;;;;;5033355;28;20585;-79
2021/12/29 03:13:41;;;;;;;91.18;19.95;;;6.40;99.90;;;;;;5016563;28;20072;-83
2021/12/29 03:16:08;;;;;;;96.82;20.55;;;6.30;99.90;;;;;;5033177;28;20555;-83
2021/12/29 03:18:34;;;;;;;62.22;15.55;;;6.30;99.90;;;;;;5016564;28;20045;-83
2021/12/29 03:21:00;;;;;;;99.90;21.23;;;6.30;99.90;;;;;;5049359;28;20111;-80
2021/12/29 03:23:26;;;;;;;104.40;22.67;;;6.30;99.90;;;;;;5032701;28;20399;-79
2021/12/29 03:25:52;;;;;;;65.65;16.48;;;6.30;99.90;;;;;;5032750;28;20041;-83
2021/12/29 03:28:22;;;;;;;87.60;21.70;;;6.30;99.90;;;;;;5016077;28;20077;-83
2021/12/29 03:30:52;;;;;;;98.72;23.42;;;6.40;99.90;;;;;;5016484;28;20056;-79
2021/12/29 03:33:19;;;;;;;68.82;17.90;;;6.30;99.90;;;;;;5000304;28;20045;-83
2021/12/29 03:36:12;;;;;;;105.03;23.38;;;6.30;99.90;;;;;;5032489;28;20046;-79
2021/12/29 03:38:40;;;;;;;71.72;16.45;;;6.40;99.90;;;;;;5030742;28;20361;-79
2021/12/29 03:41:11;;;;;;;89.97;21.88;;;6.40;99.90;;;;;;5032481;28;20053;-83
2021/12/29 03:43:38;;;;;;;86.97;21.48;;;6.50;99.90;;;;;;5048933;28;20042;-79
2021/12/29 03:46:05;;;;;;;60.33;16.38;;;6.50;99.90;;;;;;5016177;28;20396;-79
2021/12/29 03:48:32;;;;;;;109.05;24.02;;;6.50;99.90;;;;;;5015799;28;20064;-80
2021/12/29 03:50:59;;;;;;;72.97;17.67;;;6.50;99.90;;;;;;5015747;28;20110;-83
2021/12/29 03:53:25;;;;;;;72.03;18.75;;;6.60;99.90;;;;;;5032218;28;20053;-83
2021/12/29 03:55:52;;;;;;;82.07;20.73;;;6.50;99.90;;;;;;5032125;28;20091;-83
2021/12/29 03:58:19;;;;;;;83.45;22.02;;;6.50;99.90;;;;;;4999634;28;20055;-83
2021/12/29 04:00:47;;;;;;;80.80;22.45;;;6.60;99.90;;;;;;5048793;28;20045;-79
2021/12/29 04:03:13;;;;;;;69.55;19.23;;;6.50;99.90;;;;;;5015993;28;20041;-80
2021/12/29 04:05:39;;;;;;;83.75;24.08;;;6.60;99.90;;;;;;5032025;28;20144;-83
2021/12/29 04:08:05;;;;;;;70.95;22.85;;;6.60;99.90;;;;;;5032222;28;20389;-82
2021/12/29 04:10:31;;;;;;;65.53;21.95;;;6.50;99.90;;;;;;5015724;28;20081;-79
2021/12/29 04:12:57;;;;;;;109.47;27.65;;;6.50;99.90;;;;;;5015458;28;20053;-79
2021/12/29 04:15:25;;;;;;;111.78;26.27;;;6.50;99.90;;;;;;5048462;28;20129;-79
2021/12/29 04:17:57;;;;;;;121.97;29.45;;;6.30;99.90;;;;;;5031847;28;20049;-84
2021/12/29 04:23:09;;;;;;;88.22;24.52;;;6.30;99.90;;;;;;5018037;28;20076;-79
2021/12/29 04:25:37;;;;;;;51.60;18.92;;;6.20;99.90;;;;;;5015396;28;20110;-83
2021/12/29 04:28:08;;;;;;;93.07;25.55;;;6.30;99.90;;;;;;5031594;28;20045;-79
2021/12/29 04:30:35;;;;;;;81.97;25.75;;;6.40;99.90;;;;;;5048550;28;20514;-79
2021/12/29 04:33:02;;;;;;;86.57;24.75;;;6.30;99.90;;;;;;5048574;28;20053;-79
2021/12/29 04:35:28;;;;;;;82.43;23.73;;;6.30;99.90;;;;;;5048440;28;20045;-83
2021/12/29 04:37:53;;;;;;;60.45;19.90;;;6.40;99.90;;;;;;5015337;28;20451;-83
2021/12/29 04:40:20;;;;;;;84.82;21.95;;;6.40;99.90;;;;;;5015218;28;20042;-84
2021/12/29 04:42:46;;;;;;;101.85;25.33;;;6.40;99.90;;;;;;5015072;28;20124;-83
2021/12/29 04:45:15;;;;;;;70.10;20.17;;;6.50;99.90;;;;;;5031796;28;20580;-83
2021/12/29 04:47:43;;;;;;;66.78;19.75;;;6.50;99.90;;;;;;5034985;28;20053;-80
2021/12/29 04:50:24;;;;;;;92.28;23.40;;;6.50;99.90;;;;;;5038328;28;20404;-79
2021/12/29 04:52:51;;;;;;;51.35;17.98;;;6.60;99.90;;;;;;5038241;28;20061;-83
2021/12/29 04:55:17;;;;;;;47.80;16.45;;;6.40;99.90;;;;;;5037899;28;20057;-79
2021/12/29 04:57:43;;;;;;;84.60;24.02;;;6.50;99.90;;;;;;5021658;28;20049;-79
2021/12/29 05:00:09;;;;;;;70.63;22.15;;;6.50;99.90;;;;;;5021446;28;20042;-83
2021/12/29 05:02:35;;;;;;;74.72;21.63;;;6.40;99.90;;;;;;5037977;28;20060;-79
2021/12/29 05:05:11;;;;;;;78.30;21.90;;;6.40;99.90;;;;;;5021615;28;20046;-79
2021/12/29 05:10:21;;;;;;;45.53;17.42;;;6.50;99.90;;;;;;5038238;28;20056;-83
2021/12/29 05:12:47;;;;;;;67.28;19.75;;;6.50;99.90;;;;;;5005070;28;20045;-83
2021/12/29 05:15:13;;;;;;;94.25;27.75;;;6.50;99.90;;;;;;5037924;28;20041;-83
2021/12/29 05:17:38;;;;;;;80.65;24.05;;;6.40;99.90;;;;;;5021589;28;20412;-79
2021/12/29 05:20:05;;;;;;;67.60;21.88;;;6.50;99.90;;;;;;5021395;28;20092;-79
2021/12/29 05:22:30;;;;;;;77.45;23.73;;;6.50;99.90;;;;;;5021275;28;20136;-83
2021/12/29 05:24:56;;;;;;;118.00;30.35;;;6.50;99.90;;;;;;5037920;28;20132;-83
2021/12/29 05:27:22;;;;;;;75.03;24.40;;;6.40;99.90;;;;;;5037849;28;20111;-79
2021/12/29 05:29:47;;;;;;;101.65;26.73;;;6.40;99.90;;;;;;5037812;28;20137;-84
2021/12/29 05:32:13;;;;;;;82.55;25.35;;;6.40;99.90;;;;;;5037846;28;20091;-79
2021/12/29 05:34:39;;;;;;;104.25;28.35;;;6.40;99.90;;;;;;5021296;28;20400;-79
2021/12/29 05:37:04;;;;;;;132.30;31.20;;;6.40;99.90;;;;;;5021174;28;20132;-82
2021/12/29 05:39:30;;;;;;;116.93;29.88;;;6.40;99.90;;;;;;5037501;28;20472;-79
2021/12/29 05:41:56;;;;;;;95.25;28.58;;;6.30;99.90;;;;;;5021194;28;20504;-80
2021/12/29 05:44:22;;;;;;;100.30;28.38;;;6.30;99.90;;;;;;5021161;28;20048;-81
2021/12/29 05:46:47;;;;;;;104.78;27.92;;;6.30;99.90;;;;;;5037871;28;20068;-79
2021/12/29 05:49:14;;;;;;;81.75;24.23;;;6.20;99.90;;;;;;5021341;28;20076;-84
2021/12/29 05:51:40;;;;;;;94.15;28.50;;;6.30;99.90;;;;;;5037854;28;20049;-83
2021/12/29 05:54:06;;;;;;;100.88;28.48;;;6.40;99.90;;;;;;5037586;28;20115;-79
2021/12/29 05:56:31;;;;;;;102.80;29.23;;;6.40;99.90;;;;;;5020670;28;20053;-81
2021/12/29 05:59:01;;;;;;;80.45;24.95;;;6.30;99.90;;;;;;5018240;28;20408;-83
2021/12/29 06:01:28;;;;;;;101.22;30.48;;;6.30;99.90;;;;;;5034654;28;20072;-83
2021/12/29 06:03:55;;;;;;;116.15;30.42;;;6.30;99.90;;;;;;5034249;28;20041;-79
2021/12/29 06:06:20;;;;;;;141.80;33.97;;;6.40;99.90;;;;;;5034462;28;20455;-80
2021/12/29 06:08:46;;;;;;;101.78;27.58;;;6.30;99.90;;;;;;5051017;28;20049;-79
2021/12/29 06:11:12;;;;;;;84.40;23.85;;;6.40;99.90;;;;;;5018050;28;20048;-82
2021/12/29 06:13:37;;;;;;;77.50;23.77;;;6.50;99.90;;;;;;5017574;28;20045;-83
2021/12/29 06:16:03;;;;;;;118.60;29.85;;;6.40;99.90;;;;;;5034100;28;20510;-81
2021/12/29 06:18:29;;;;;;;108.80;28.15;;;6.40;99.90;;;;;;5034273;28;20518;-79
2021/12/29 06:20:55;;;;;;;100.32;26.25;;;6.40;99.90;;;;;;5017424;28;20102;-79
2021/12/29 06:23:21;;;;;;;115.03;25.77;;;6.50;99.90;;;;;;5034238;28;20049;-83
2021/12/29 06:25:47;;;;;;;64.68;19.58;;;6.40;99.90;;;;;;5034211;28;20052;-83
2021/12/29 06:28:13;;;;;;;93.68;24.08;;;6.40;99.90;;;;;;5033857;28;20095;-79
2021/12/29 06:30:39;;;;;;;81.80;21.23;;;6.50;99.90;;;;;;5001756;28;20037;-80
2021/12/29 06:33:05;;;;;;;124.30;26.08;;;6.50;99.90;;;;;;5017275;28;20081;-79
2021/12/29 06:35:30;;;;;;;129.73;26.42;;;6.50;99.90;;;;;;5033742;28;20099;-79
2021/12/29 06:37:56;;;;;;;132.07;26.40;;;6.50;99.90;;;;;;5017343;28;20041;-79
2021/12/29 06:40:22;;;;;;;94.38;21.75;;;6.60;99.90;;;;;;5033909;28;20480;-83
2021/12/29 06:42:47;;;;;;;49.50;14.80;;;6.50;99.90;;;;;;5033485;28;20041;-83
2021/12/29 06:45:13;;;;;;;52.22;15.45;;;6.60;99.90;;;;;;5017196;28;20049;-80
2021/12/29 06:47:39;;;;;;;94.97;18.27;;;6.70;99.90;;;;;;5033644;28;20145;-79
2021/12/29 06:50:06;;;;;;;89.88;18.95;;;6.70;99.90;;;;;;5049948;28;20049;-79
2021/12/29 06:52:32;;;;;;;248.32;28.75;;;6.70;99.90;;;;;;5033970;28;20404;-84
2021/12/29 06:54:58;;;;;;;78.30;16.60;;;6.70;99.90;;;;;;5016476;28;20041;-79
2021/12/29 06:57:24;;;;;;;216.65;26.42;;;6.70;99.90;;;;;;5033394;28;20061;-80
2021/12/29 06:59:50;;;;;;;257.17;29.00;;;6.80;99.90;;;;;;5033467;28;20053;-79
2021/12/29 07:02:16;;;;;;;209.38;23.85;;;6.80;99.90;;;;;;5033132;28;20049;-80
2021/12/29 07:04:42;;;;;;;180.85;24.42;;;6.80;99.90;;;;;;5000511;28;20484;-83
2021/12/29 07:07:08;;;;;;;282.65;31.80;;;6.70;99.90;;;;;;5016779;28;20046;-80
2021/12/29 07:09:34;;;;;;;195.35;27.00;;;6.70;99.90;;;;;;5033241;28;20376;-80
2021/12/29 07:12:00;;;;;;;167.55;25.35;;;6.80;99.90;;;;;;5033065;28;20080;-79
2021/12/29 07:14:26;;;;;;;261.73;29.92;;;6.70;99.90;;;;;;5049782;28;20038;-84
2021/12/29 07:16:51;;;;;;;262.77;30.27;;;6.70;99.90;;;;;;5016710;28;20052;-80
2021/12/29 07:19:19;;;;;;;183.00;26.67;;;6.80;99.90;;;;;;5016536;28;20041;-82
2021/12/29 07:21:45;;;;;;;293.27;31.25;;;6.80;99.90;;;;;;5032681;28;20045;-79
2021/12/29 07:24:11;;;;;;;185.00;25.77;;;6.80;99.90;;;;;;5033135;28;20077;-79
2021/12/29 07:26:37;;;;;;;161.57;24.50;;;6.80;99.90;;;;;;5032756;28;20099;-79
2021/12/29 07:29:05;;;;;;;183.98;23.50;;;6.70;99.90;;;;;;5032801;28;20050;-83
2021/12/29 07:31:32;;;;;;;115.60;19.63;;;6.80;99.90;;;;;;5016246;28;20450;-83
2021/12/29 07:33:58;;;;;;;122.35;22.55;;;6.70;99.90;;;;;;5049142;28;20037;-80
2021/12/29 07:36:24;;;;;;;137.75;23.23;;;6.80;99.90;;;;;;5032725;28;20038;-83
2021/12/29 07:38:49;;;;;;;238.13;29.83;;;6.80;99.90;;;;;;5016203;28;20511;-83
2021/12/29 07:41:16;;;;;;;154.00;26.08;;;6.80;99.90;;;;;;5016070;28;20048;-83
2021/12/29 07:43:42;;;;;;;152.00;23.52;;;6.90;99.90;;;;;;5032697;28;20492;-79
2021/12/29 07:46:08;;;;;;;97.32;18.42;;;6.80;99.90;;;;;;5032837;28;20498;-80
2021/12/29 07:48:34;;;;;;;92.80;18.67;;;6.80;99.90;;;;;;5032559;28;20045;-79
2021/12/29 07:51:03;;;;;;;118.07;19.60;;;7.00;99.90;;;;;;5032741;28;20477;-80
2021/12/29 07:53:29;;;;;;;36.75;10.50;;;6.80;99.90;;;;;;5032188;28;20060;-83
2021/12/29 07:55:55;;;;;;;149.00;23.88;;;7.00;99.90;;;;;;5048603;28;20119;-83
2021/12/29 07:58:22;;;;;;;78.03;19.85;;;7.00;99.90;;;;;;5015754;28;20045;-79
2021/12/29 08:00:49;;;;;;;158.63;24.95;;;6.90;99.90;;;;;;5048696;28;20046;-79
2021/12/29 08:03:15;;;;;;;130.90;23.80;;;6.90;99.90;;;;;;5032062;28;20053;-82
2021/12/29 08:05:42;;;;;;;118.85;23.77;;;7.00;99.90;;;;;;5032186;28;20050;-82
2021/12/29 08:08:09;;;;;;;146.93;25.98;;;7.00;99.90;;;;;;5015711;28;20048;-83
2021/12/29 08:10:38;;;;;;;99.93;22.30;;;7.00;99.90;;;;;;5015451;28;20045;-79
2021/12/29 08:13:06;;;;;;;85.78;21.15;;;7.00;99.90;;;;;;5031964;28;20114;-83
2021/12/29 08:15:33;;;;;;;92.03;20.92;;;7.00;99.90;;;;;;5015500;28;20107;-83
2021/12/29 08:18:05;;;;;;;100.25;23.52;;;7.10;99.90;;;;;;5015841;28;20571;-83
2021/12/29 08:20:33;;;;;;;107.82;24.27;;;7.10;99.90;;;;;;5048326;28;20063;-83
2021/12/29 08:22:59;;;;;;;122.30;26.42;;;7.10;99.90;;;;;;5047736;28;20051;-83
2021/12/29 08:25:25;;;;;;;126.15;27.38;;;7.10;99.90;;;;;;5031587;28;20041;-79
2021/12/29 08:27:51;;;;;;;111.00;22.58;;;7.10;99.90;;;;;;5031629;28;20045;-79
2021/12/29 08:30:17;;;;;;;144.68;26.75;;;7.10;99.90;;;;;;5048615;28;20171;-80
2021/12/29 08:32:43;;;;;;;120.10;24.05;;;7.20;99.90;;;;;;5048496;28;20052;-79
2021/12/29 08:35:09;;;;;;;124.90;25.33;;;7.10;99.90;;;;;;5015192;28;20050;-80
2021/12/29 08:37:35;;;;;;;134.73;24.67;;;7.10;99.90;;;;;;5048322;28;20049;-83
2021/12/29 08:40:03;;;;;;;156.20;25.20;;;7.10;99.90;;;;;;5032003;28;20547;-79
2021/12/29 08:42:29;;;;;;;281.25;33.58;;;7.20;99.90;;;;;;5031590;28;20211;-83
2021/12/29 08:44:54;;;;;;;224.82;25.15;;;7.20;99.90;;;;;;5031623;28;20081;-80
2021/12/29 08:47:20;;;;;;;95.68;18.13;;;7.10;99.90;;;;;;5015448;28;20041;-83
2021/12/29 08:49:46;;;;;;;192.68;25.70;;;6.90;99.90;;;;;;5015190;28;20049;-79
2021/12/29 08:52:12;;;;;;;265.95;30.20;;;7.10;99.90;;;;;;5015276;28;20044;-82
2021/12/29 08:54:38;;;;;;;187.90;24.55;;;7.00;99.90;;;;;;5015346;28;20057;-84
2021/12/29 08:57:05;;;;;;;129.20;20.08;;;7.10;99.90;;;;;;5014897;28;20137;-79
2021/12/29 08:59:31;;;;;;;184.75;22.92;;;7.10;99.90;;;;;;5032016;28;20444;-83
2021/12/29 09:01:56;;;;;;;196.90;22.80;;;7.10;99.90;;;;;;5031542;28;20081;-82
2021/12/29 09:04:22;;;;;;;245.75;28.08;;;7.10;99.90;;;;;;5048461;28;20106;-79
2021/12/29 09:06:48;;;;;;;272.08;30.27;;;7.20;99.90;;;;;;5047911;28;20048;-83
2021/12/29 09:09:14;;;;;;;289.42;29.48;;;7.30;99.90;;;;;;5031144;28;20041;-79
2021/12/29 09:11:40;;;;;;;174.15;22.92;;;7.10;99.90;;;;;;5014968;28;20411;-81
2021/12/29 09:14:06;;;;;;;246.05;25.17;;;7.30;99.90;;;;;;5048460;28;20041;-79
2021/12/29 09:16:32;;;;;;;162.43;22.13;;;7.20;99.90;;;;;;5031164;28;20037;-82
2021/12/29 09:18:58;;;;;;;175.07;24.40;;;7.20;99.90;;;;;;5014818;28;20128;-79
2021/12/29 09:21:26;;;;;;;136.18;20.00;;;7.20;99.90;;;;;;5031163;28;20049;-79
2021/12/29 09:23:52;;;;;;;111.95;17.17;;;7.20;99.90;;;;;;5014833;28;20554;-83
2021/12/29 09:26:18;;;;;;;171.95;22.08;;;7.40;99.90;;;;;;5048176;28;20041;-82
2021/12/29 09:28:46;;;;;;;92.88;13.07;;;7.20;99.90;;;;;;5047903;28;20045;-84
2021/12/29 09:31:14;;;;;;;97.90;13.95;;;7.20;99.90;;;;;;5047750;28;20041;-83
2021/12/29 09:33:40;;;;;;;61.03;10.40;;;7.30;99.90;;;;;;5016132;28;20104;-84
2021/12/29 09:36:07;;;;;;;66.43;13.40;;;7.30;99.90;;;;;;5035107;28;20425;-79
2021/12/29 09:38:39;;;;;;;76.28;14.90;;;7.30;99.90;;;;;;5034569;28;20052;-80
2021/12/29 09:41:08;;;;;;;58.45;12.73;;;7.30;99.90;;;;;;5018323;28;20049;-79
2021/12/29 09:43:34;;;;;;;51.10;11.85;;;7.40;99.90;;;;;;5034661;28;20060;-79
2021/12/29 09:46:01;;;;;;;81.85;16.67;;;7.40;99.90;;;;;;5051184;28;20049;-83
2021/12/29 09:48:26;;;;;;;55.17;14.05;;;7.40;99.90;;;;;;5034690;28;20124;-83
2021/12/29 09:50:52;;;;;;;93.00;18.45;;;7.50;99.90;;;;;;5034478;28;20385;-79
2021/12/29 09:53:19;;;;;;;73.18;15.95;;;7.40;99.90;;;;;;5034612;28;20052;-79
2021/12/29 09:55:46;;;;;;;95.70;19.25;;;7.40;99.90;;;;;;5034014;28;20054;-83
2021/12/29 09:58:13;;;;;;;55.60;14.57;;;7.50;99.90;;;;;;5034634;28;20046;-84
2021/12/29 10:00:52;;;;;;;68.07;16.15;;;7.50;99.90;;;;;;5017608;28;20095;-79
2021/12/29 10:03:20;;;;;;;56.60;15.25;;;7.40;99.90;;;;;;5034262;28;20373;-84
2021/12/29 10:05:49;;;;;;;57.15;16.80;;;7.50;99.90;;;;;;5035329;28;20046;-84
2021/12/29 10:08:30;;;;;;;51.60;14.32;;;7.50;99.90;;;;;;5034211;28;20084;-79
2021/12/29 10:11:10;;;;;;;62.13;17.17;;;7.50;99.90;;;;;;5034230;28;20053;-79
2021/12/29 10:13:38;;;;;;;53.25;16.23;;;7.60;99.90;;;;;;5034472;28;20389;-83
2021/12/29 10:16:07;;;;;;;47.13;14.80;;;7.60;99.90;;;;;;5034190;28;20038;-83
2021/12/29 10:18:36;;;;;;;43.50;15.45;;;7.60;99.90;;;;;;5034110;28;20071;-79
2021/12/29 10:21:09;;;;;;;39.50;12.95;;;7.60;99.90;;;;;;5017683;28;20041;-83
2021/12/29 10:23:45;;;;;;;39.17;13.57;;;7.60;99.90;;;;;;5033935;28;20057;-84
2021/12/29 10:26:32;;;;;;;37.80;13.75;;;7.70;99.90;;;;;;5033844;28;20045;-79
2021/12/29 10:29:02;;;;;;;47.28;14.75;;;7.60;99.90;;;;;;5033730;28;20045;-83
2021/12/29 10:31:38;;;;;;;30.60;9.98;;;7.70;99.90;;;;;;5017363;28;20041;-83
2021/12/29 10:34:08;;;;;;;23.52;7.85;;;7.60;99.90;;;;;;5017806;28;20041;-83
2021/12/29 10:36:45;;;;;;;18.70;7.80;;;7.60;99.90;;;;;;5034092;28;20403;-83
2021/12/29 10:39:18;;;;;;;31.90;10.35;;;7.50;99.90;;;;;;5017208;28;20041;-83
2021/12/29 10:41:59;;;;;;;27.60;10.00;;;7.60;99.90;;;;;;5033832;28;20049;-83
2021/12/29 10:44:28;;;;;;;23.02;6.78;;;7.60;99.90;;;;;;5033627;28;20056;-84
2021/12/29 10:46:56;;;;;;;30.25;12.00;;;7.60;99.90;;;;;;5033568;28;20041;-79
2021/12/29 10:49:26;;;;;;;36.70;12.20;;;7.60;99.90;;;;;;5017411;28;20510;-79
2021/12/29 10:51:58;;;;;;;34.20;11.55;;;7.60;99.90;;;;;;5033379;28;20037;-83
2021/12/29 10:54:28;;;;;;;19.20;9.32;;;7.60;99.90;;;;;;5033171;28;20045;-84
2021/12/29 10:57:06;;;;;;;27.95;9.73;;;7.60;99.90;;;;;;5033196;28;20060;-79
2021/12/29 10:59:36;;;;;;;32.38;11.35;;;7.50;99.90;;;;;;5017173;28;20385;-83
2021/12/29 11:02:03;;;;;;;28.60;9.80;;;7.60;99.90;;;;;;5016840;28;20045;-79
2021/12/29 11:04:29;;;;;;;31.95;9.73;;;7.50;99.90;;;;;;5016909;28;20048;-80
2021/12/29 11:06:57;;;;;;;33.53;10.77;;;7.40;99.90;;;;;;5016531;28;20503;-79
2021/12/29 11:09:32;;;;;;;32.28;10.95;;;7.50;99.90;;;;;;5033005;28;20407;-82
2021/12/29 11:12:00;;;;;;;27.55;9.90;;;7.50;99.90;;;;;;5049496;28;20055;-79
2021/12/29 11:14:32;;;;;;;36.20;11.43;;;7.40;99.90;;;;;;5016331;28;20096;-79
2021/12/29 11:17:08;;;;;;;29.38;9.82;;;7.50;99.90;;;;;;5033167;28;20575;-83
2021/12/29 11:19:35;;;;;;;22.55;7.82;;;7.40;99.90;;;;;;5033287;28;20484;-83
2021/12/29 11:22:13;;;;;;;31.83;9.10;;;7.40;99.90;;;;;;5032693;28;20053;-80
2021/12/29 11:24:40;;;;;;;39.28;11.07;;;7.40;99.90;;;;;;5016406;28;20046;-83
2021/12/29 11:27:17;;;;;;;35.40;10.25;;;7.50;99.90;;;;;;5049352;28;20084;-83
2021/12/29 11:29:55;;;;;;;33.00;10.15;;;7.40;99.90;;;;;;5016306;28;20080;-83
2021/12/29 11:32:28;;;;;;;37.40;12.13;;;7.50;99.90;;;;;;5016243;28;20055;-79
2021/12/29 11:35:15;;;;;;;54.92;13.20;;;7.50;99.90;;;;;;5032921;28;20400;-79
2021/12/29 11:37:46;;;;;;;29.45;12.30;;;7.60;99.90;;;;;;5032478;28;20042;-80
2021/12/29 11:40:16;;;;;;;29.42;10.70;;;7.60;99.90;;;;;;5015964;28;20033;-80
2021/12/29 11:42:42;;;;;;;37.20;12.48;;;7.50;99.90;;;;;;5032198;28;20132;-84
2021/12/29 11:45:10;;;;;;;31.98;11.23;;;7.50;99.90;;;;;;5032260;28;20079;-80
2021/12/29 11:47:36;;;;;;;15.18;6.00;;;7.60;99.90;;;;;;5032235;28;20046;-84
2021/12/29 11:50:03;;;;;;;36.90;10.88;;;7.50;99.90;;;;;;5015984;28;20049;-84
2021/12/29 11:52:45;;;;;;;31.35;11.98;;;7.60;99.90;;;;;;5032216;28;20045;-80
2021/12/29 11:55:18;;;;;;;31.42;10.70;;;7.60;99.90;;;;;;5049074;28;20435;-84
2021/12/29 11:57:45;;;;;;;34.10;11.43;;;7.60;99.90;;;;;;5047665;28;20505;-82
2021/12/29 12:00:21;;;;;;;34.55;10.52;;;7.60;99.90;;;;;;5031868;28;20124;-79
2021/12/29 12:02:49;;;;;;;32.90;9.38;;;7.60;99.90;;;;;;5048485;28;20046;-80
2021/12/29 12:05:32;;;;;;;36.70;11.65;;;7.60;99.90;;;;;;5031976;28;20208;-83
2021/12/29 12:08:13;;;;;;;35.33;12.30;;;7.60;99.90;;;;;;5048547;28;20053;-79
2021/12/29 12:10:40;;;;;;;45.83;15.85;;;7.60;99.90;;;;;;5032235;28;20041;-79
2021/12/29 12:13:27;;;;;;;44.55;11.93;;;7.60;99.90;;;;;;5031889;28;20045;-84
2021/12/29 12:16:08;;;;;;;39.42;11.25;;;7.60;99.90;;;;;;5031794;28;20048;-83
2021/12/29 12:18:52;;;;;;;24.45;8.65;;;7.60;99.90;;;;;;5048658;28;20103;-84
2021/12/29 12:21:26;;;;;;;38.22;14.25;;;7.60;99.90;;;;;;5032276;28;20598;-84
2021/12/29 12:23:53;;;;;;;40.58;13.40;;;7.60;99.90;;;;;;5031773;28;20972;-84
2021/12/29 12:26:22;;;;;;;29.15;12.00;;;7.60;99.90;;;;;;5032370;28;20041;-80
2021/12/29 12:28:53;;;;;;;28.25;10.40;;;7.80;99.90;;;;;;5015120;28;20096;-84
2021/12/29 12:31:28;;;;;;;22.90;7.38;;;7.60;99.90;;;;;;5032058;28;20520;-80
2021/12/29 12:34:08;;;;;;;31.33;6.85;;;7.60;99.90;;;;;;5031584;28;20053;-84
2021/12/29 12:36:34;;;;;;;21.75;8.63;;;7.60;99.90;;;;;;5031903;28;20408;-83
2021/12/29 12:39:15;;;;;;;26.98;9.60;;;7.70;99.90;;;;;;5015133;28;20045;-80
2021/12/29 12:41:43;;;;;;;22.38;6.55;;;7.60;99.90;;;;;;5031601;28;20492;-84
2021/12/29 12:44:09;;;;;;;19.10;8.18;;;7.60;99.90;;;;;;5031533;28;20104;-84